createdAt,value
2022-08-30T00:02:28.441Z,19.19
2022-08-30T00:04:57.363Z,19.04
2022-08-30T00:07:25.728Z,19.08
2022-08-30T00:09:55.617Z,18.95
2022-08-30T00:12:24.082Z,18.94
2022-08-30T00:14:54.478Z,18.89
2022-08-30T00:17:22.751Z,18.86
2022-08-30T00:19:51.018Z,18.96
2022-08-30T00:22:19.270Z,18.96
2022-08-30T00:24:47.457Z,18.64
2022-08-30T00:27:17.301Z,18.91
2022-08-30T00:29:45.830Z,18.87
2022-08-30T00:32:14.018Z,18.86
2022-08-30T00:34:42.190Z,18.77
2022-08-30T00:37:10.467Z,18.85
2022-08-30T00:39:38.801Z,18.74
2022-08-30T00:42:07.983Z,18.70
2022-08-30T00:44:37.675Z,18.72
2022-08-30T00:47:06.255Z,18.72
2022-08-30T00:49:37.395Z,18.64
2022-08-30T00:52:07.305Z,18.60
2022-08-30T00:54:38.351Z,18.47
2022-08-30T00:57:07.239Z,18.46
2022-08-30T00:59:38.302Z,18.53
2022-08-30T01:02:07.549Z,18.51
2022-08-30T01:04:37.379Z,18.48
2022-08-30T01:07:05.868Z,18.46
2022-08-30T01:09:34.050Z,18.41
2022-08-30T01:12:02.738Z,18.40
2022-08-30T01:14:33.309Z,18.44
2022-08-30T01:17:05.983Z,18.46
2022-08-30T01:19:43.250Z,18.33
2022-08-30T01:22:27.484Z,18.38
2022-08-30T01:25:01.275Z,18.36
2022-08-30T01:27:31.903Z,18.42
2022-08-30T01:30:00.617Z,18.45
2022-08-30T01:32:30.423Z,18.40
2022-08-30T01:34:59.513Z,18.50
2022-08-30T01:37:32.706Z,18.44
2022-08-30T01:40:02.675Z,18.45
2022-08-30T01:42:31.094Z,18.48
2022-08-30T01:44:59.372Z,18.40
2022-08-30T01:47:27.758Z,18.38
2022-08-30T01:49:55.938Z,18.36
2022-08-30T01:52:24.146Z,18.41
2022-08-30T01:54:53.494Z,18.26
2022-08-30T01:57:26.786Z,18.23
2022-08-30T01:59:55.089Z,18.22
2022-08-30T02:02:26.866Z,18.15
2022-08-30T02:04:55.924Z,18.20
2022-08-30T02:07:25.338Z,18.16
2022-08-30T02:09:54.521Z,18.06
2022-08-30T02:12:24.135Z,18.25
2022-08-30T02:14:52.341Z,18.22
2022-08-30T02:17:21.184Z,18.23
2022-08-30T02:19:49.859Z,18.21
2022-08-30T02:22:18.208Z,18.15
2022-08-30T02:24:46.455Z,18.20
2022-08-30T02:27:14.896Z,18.10
2022-08-30T02:29:44.951Z,18.14
2022-08-30T02:32:13.166Z,18.16
2022-08-30T02:34:41.600Z,18.20
2022-08-30T02:37:10.314Z,18.20
2022-08-30T02:39:38.703Z,18.21
2022-08-30T02:42:07.390Z,18.16
2022-08-30T02:44:35.725Z,18.05
2022-08-30T02:47:05.514Z,18.20
2022-08-30T02:49:34.349Z,18.06
2022-08-30T02:52:04.109Z,18.04
2022-08-30T02:54:33.278Z,18.11
2022-08-30T02:57:05.087Z,18.02
2022-08-30T02:59:34.086Z,17.97
2022-08-30T03:02:03.987Z,18.07
2022-08-30T03:04:32.405Z,17.92
2022-08-30T03:07:01.680Z,18.01
2022-08-30T03:09:29.962Z,18.02
2022-08-30T03:11:58.599Z,17.88
2022-08-30T03:14:28.096Z,17.91
2022-08-30T03:16:56.528Z,17.97
2022-08-30T03:19:26.877Z,17.98
2022-08-30T03:21:55.309Z,17.91
2022-08-30T03:24:23.511Z,18.02
2022-08-30T03:26:51.956Z,17.98
2022-08-30T03:29:20.155Z,17.84
2022-08-30T03:31:53.660Z,17.88
2022-08-30T03:34:23.697Z,17.65
2022-08-30T03:36:55.643Z,17.65
2022-08-30T03:39:25.662Z,17.84
2022-08-30T03:41:54.874Z,17.76
2022-08-30T03:44:23.521Z,17.59
2022-08-30T03:46:52.088Z,17.68
2022-08-30T03:49:21.416Z,17.56
2022-08-30T03:51:49.828Z,17.68
2022-08-30T03:54:19.902Z,17.42
2022-08-30T03:56:48.374Z,17.41
2022-08-30T03:59:17.300Z,17.70
2022-08-30T04:01:46.012Z,17.61
2022-08-30T04:04:20.021Z,17.66
2022-08-30T04:06:49.718Z,17.72
2022-08-30T04:09:19.937Z,17.69
2022-08-30T04:11:48.614Z,17.63
2022-08-30T04:14:16.803Z,17.61
2022-08-30T04:16:46.895Z,17.55
2022-08-30T04:19:15.660Z,17.69
2022-08-30T04:21:44.791Z,17.71
2022-08-30T04:24:13.533Z,17.55
2022-08-30T04:26:45.422Z,17.59
2022-08-30T04:29:16.599Z,17.58
2022-08-30T04:31:45.433Z,17.63
2022-08-30T04:34:14.963Z,17.74
2022-08-30T04:36:48.119Z,17.72
2022-08-30T04:39:16.939Z,17.57
2022-08-30T04:41:47.008Z,17.46
2022-08-30T04:44:19.435Z,17.44
2022-08-30T04:46:48.256Z,17.60
2022-08-30T04:49:16.623Z,17.55
2022-08-30T04:51:44.815Z,17.40
2022-08-30T04:54:13.493Z,17.67
2022-08-30T04:56:41.853Z,17.51
2022-08-30T04:59:11.861Z,17.63
2022-08-30T05:01:45.750Z,17.63
2022-08-30T05:04:14.795Z,17.70
2022-08-30T05:06:43.556Z,17.67
2022-08-30T05:09:12.025Z,17.71
2022-08-30T05:11:40.713Z,17.69
2022-08-30T05:14:09.072Z,17.72
2022-08-30T05:16:39.847Z,17.70
2022-08-30T05:19:08.944Z,17.73
2022-08-30T05:21:40.596Z,17.75
2022-08-30T05:24:09.692Z,17.73
2022-08-30T05:26:40.350Z,17.73
2022-08-30T05:29:08.705Z,17.76
2022-08-30T05:31:39.102Z,17.81
2022-08-30T05:34:07.599Z,17.82
2022-08-30T05:36:38.360Z,17.76
2022-08-30T05:39:09.064Z,17.81
2022-08-30T05:41:39.132Z,17.91
2022-08-30T05:44:24.124Z,17.94
2022-08-30T05:46:55.615Z,18.02
2022-08-30T05:49:24.069Z,17.81
2022-08-30T05:51:52.491Z,17.93
2022-08-30T05:54:21.242Z,17.98
2022-08-30T05:56:52.489Z,18.16
2022-08-30T05:59:21.460Z,18.25
2022-08-30T06:01:49.911Z,18.38
2022-08-30T06:04:20.104Z,18.42
2022-08-30T06:06:49.202Z,18.59
2022-08-30T06:09:17.765Z,18.67
2022-08-30T06:11:46.591Z,18.77
2022-08-30T06:14:15.991Z,18.85
2022-08-30T06:16:45.894Z,19.08
2022-08-30T06:19:24.198Z,19.40
2022-08-30T06:21:53.917Z,19.40
2022-08-30T06:24:35.700Z,19.67
2022-08-30T06:27:18.622Z,19.75
2022-08-30T06:29:47.751Z,19.75
2022-08-30T06:32:16.097Z,19.94
2022-08-30T06:34:44.396Z,20.55
2022-08-30T06:37:29.527Z,20.84
2022-08-30T06:39:58.784Z,20.81
2022-08-30T06:42:31.766Z,20.88
2022-08-30T06:45:10.463Z,21.06
2022-08-30T06:47:42.552Z,21.11
2022-08-30T06:50:16.301Z,20.89
2022-08-30T06:52:47.503Z,21.14
2022-08-30T06:55:19.270Z,21.15
2022-08-30T06:57:50.601Z,21.08
2022-08-30T07:00:19.683Z,21.52
2022-08-30T07:02:48.536Z,21.25
2022-08-30T07:05:27.301Z,21.50
2022-08-30T07:07:59.781Z,21.58
2022-08-30T07:10:27.959Z,21.62
2022-08-30T07:12:56.072Z,21.71
2022-08-30T07:15:33.988Z,21.57
2022-08-30T07:18:24.423Z,21.57
2022-08-30T07:20:52.368Z,21.87
2022-08-30T07:23:22.103Z,21.69
2022-08-30T07:25:50.445Z,21.95
2022-08-30T07:28:18.738Z,21.92
2022-08-30T07:30:47.070Z,22.34
2022-08-30T07:33:15.360Z,22.14
2022-08-30T07:35:43.803Z,22.53
2022-08-30T07:38:14.715Z,22.08
2022-08-30T07:40:44.719Z,22.28
2022-08-30T07:43:13.012Z,22.40
2022-08-30T07:45:41.277Z,22.35
2022-08-30T07:48:11.533Z,22.47
2022-08-30T07:50:40.120Z,22.43
2022-08-30T07:53:10.793Z,22.27
2022-08-30T07:55:39.612Z,22.56
2022-08-30T07:58:09.205Z,22.74
2022-08-30T08:00:46.128Z,22.60
2022-08-30T08:03:14.425Z,23.21
2022-08-30T08:05:46.138Z,23.36
2022-08-30T08:08:15.532Z,22.95
2022-08-30T08:10:44.349Z,22.98
2022-08-30T08:13:14.112Z,23.01
2022-08-30T08:15:42.446Z,22.80
2022-08-30T08:18:10.701Z,23.47
2022-08-30T08:20:38.946Z,23.25
2022-08-30T08:23:07.199Z,23.34
2022-08-30T08:25:41.503Z,23.05
2022-08-30T08:28:10.346Z,23.32
2022-08-30T08:30:41.570Z,23.14
2022-08-30T08:33:13.094Z,23.28
2022-08-30T08:35:41.389Z,23.37
2022-08-30T08:38:10.089Z,23.47
2022-08-30T08:40:48.631Z,23.44
2022-08-30T08:43:21.743Z,23.61
2022-08-30T08:45:58.892Z,23.31
2022-08-30T08:48:58.422Z,23.74
2022-08-30T08:51:47.170Z,24.12
2022-08-30T08:54:22.310Z,24.07
2022-08-30T08:56:52.537Z,24.27
2022-08-30T08:59:20.759Z,24.23
2022-08-30T09:01:51.068Z,23.82
2022-08-30T09:04:26.270Z,24.10
2022-08-30T09:07:04.065Z,24.20
2022-08-30T09:09:35.056Z,24.05
2022-08-30T09:12:06.516Z,24.17
2022-08-30T09:14:44.270Z,24.34
2022-08-30T09:17:18.543Z,24.63
2022-08-30T09:19:58.373Z,24.44
2022-08-30T09:22:33.836Z,24.43
2022-08-30T09:25:07.038Z,24.66
2022-08-30T09:27:38.538Z,24.78
2022-08-30T09:30:14.766Z,24.78
2022-08-30T09:32:54.562Z,24.47
2022-08-30T09:35:25.662Z,25.01
2022-08-30T09:37:57.378Z,24.95
2022-08-30T09:40:36.184Z,25.32
2022-08-30T09:43:12.673Z,25.03
2022-08-30T09:45:47.123Z,25.27
2022-08-30T09:48:38.274Z,24.81
2022-08-30T09:51:51.467Z,24.93
2022-08-30T09:54:27.369Z,25.59
2022-08-30T09:57:13.062Z,25.58
2022-08-30T09:59:54.899Z,25.76
2022-08-30T10:03:07.073Z,25.95
2022-08-30T10:05:49.407Z,25.86
2022-08-30T10:08:32.725Z,25.83
2022-08-30T10:11:06.888Z,25.36
2022-08-30T10:13:52.240Z,25.50
2022-08-30T10:16:36.006Z,25.95
2022-08-30T10:19:19.134Z,26.24
2022-08-30T10:21:58.150Z,26.33
2022-08-30T10:24:33.698Z,26.67
2022-08-30T10:27:09.777Z,26.60
2022-08-30T10:29:45.715Z,26.35
2022-08-30T10:32:20.006Z,25.63
2022-08-30T10:34:55.677Z,26.45
2022-08-30T10:37:30.678Z,26.73
2022-08-30T10:40:22.829Z,26.91
2022-08-30T10:42:55.090Z,26.65
2022-08-30T10:45:24.580Z,26.97
2022-08-30T10:48:03.021Z,27.03
2022-08-30T10:50:40.989Z,26.57
2022-08-30T10:53:16.816Z,26.72
2022-08-30T10:55:55.343Z,26.81
2022-08-30T10:58:24.401Z,27.26
2022-08-30T11:01:15.770Z,27.27
2022-08-30T11:04:45.534Z,27.98
2022-08-30T11:07:27.578Z,27.75
2022-08-30T11:10:22.023Z,27.62
2022-08-30T11:13:00.715Z,27.72
2022-08-30T11:15:36.648Z,27.28
2022-08-30T11:18:13.911Z,28.02
2022-08-30T11:20:45.831Z,28.09
2022-08-30T11:23:41.133Z,27.97
2022-08-30T11:26:33.206Z,28.11
2022-08-30T11:29:28.198Z,27.88
2022-08-30T11:31:58.032Z,28.09
2022-08-30T11:34:59.775Z,27.88
2022-08-30T11:37:39.689Z,28.66
2022-08-30T11:40:28.334Z,28.86
2022-08-30T11:42:57.586Z,29.01
2022-08-30T11:45:52.157Z,28.71
2022-08-30T11:48:54.048Z,29.06
2022-08-30T11:55:24.218Z,29.13
2022-08-30T11:58:01.725Z,28.92
2022-08-30T12:00:35.478Z,29.15
2022-08-30T12:03:07.950Z,28.49
2022-08-30T12:05:59.680Z,29.17
2022-08-30T12:09:02.969Z,29.41
2022-08-30T12:12:03.650Z,29.34
2022-08-30T12:14:51.917Z,29.77
2022-08-30T12:17:59.585Z,29.46
2022-08-30T12:20:42.035Z,29.35
2022-08-30T12:23:25.218Z,29.77
2022-08-30T12:26:13.107Z,29.77
2022-08-30T12:28:43.099Z,29.99
2022-08-30T12:31:14.797Z,30.20
2022-08-30T12:33:46.357Z,30.26
2022-08-30T12:36:35.852Z,29.84
2022-08-30T12:39:12.037Z,29.74
2022-08-30T12:41:43.309Z,30.17
2022-08-30T12:44:18.051Z,30.20
2022-08-30T12:46:58.866Z,29.51
2022-08-30T12:49:31.718Z,29.61
2022-08-30T12:52:23.241Z,29.96
2022-08-30T12:54:56.773Z,30.37
2022-08-30T12:57:40.269Z,30.55
2022-08-30T13:00:11.969Z,30.30
2022-08-30T13:02:51.903Z,30.61
2022-08-30T13:05:48.165Z,30.36
2022-08-30T13:08:25.221Z,30.10
2022-08-30T13:11:05.777Z,30.51
2022-08-30T13:13:40.979Z,30.40
2022-08-30T13:16:29.293Z,30.62
2022-08-30T13:19:27.795Z,30.84
2022-08-30T13:21:58.518Z,31.03
2022-08-30T13:24:28.700Z,31.11
2022-08-30T13:27:02.855Z,31.22
2022-08-30T13:29:31.910Z,31.41
2022-08-30T13:32:02.239Z,30.95
2022-08-30T13:34:32.972Z,30.91
2022-08-30T13:37:01.321Z,30.93
2022-08-30T13:39:31.004Z,30.17
2022-08-30T13:42:31.805Z,30.46
2022-08-30T13:44:47.836Z,30.12
2022-08-30T13:47:34.880Z,29.84
2022-08-30T13:50:03.781Z,31.23
2022-08-30T13:52:32.001Z,30.95
2022-08-30T13:55:01.489Z,31.06
2022-08-30T14:00:22.407Z,30.70
2022-08-30T14:02:54.607Z,31.05
2022-08-30T14:11:07.453Z,30.89
2022-08-30T14:13:36.078Z,31.05
2022-08-30T14:18:57.395Z,30.76
2022-08-30T14:21:26.157Z,30.34
2022-08-30T14:23:55.966Z,30.97
2022-08-30T14:26:32.359Z,31.04
2022-08-30T14:29:02.612Z,30.66
2022-08-30T14:31:32.660Z,31.89
2022-08-30T14:34:03.286Z,31.97
2022-08-30T14:36:33.289Z,32.58
2022-08-30T14:39:01.880Z,32.83
2022-08-30T14:41:31.567Z,33.46
2022-08-30T14:44:01.069Z,33.46
2022-08-30T14:46:29.299Z,33.53
2022-08-30T14:48:57.462Z,33.05
2022-08-30T14:51:25.653Z,33.85
2022-08-30T14:53:55.127Z,33.23
2022-08-30T14:56:24.875Z,33.38
2022-08-30T14:59:00.399Z,33.45
2022-08-30T15:01:30.036Z,33.18
2022-08-30T15:03:59.785Z,32.59
2022-08-30T15:06:29.589Z,32.50
2022-08-30T15:08:57.773Z,32.79
2022-08-30T15:11:27.889Z,33.04
2022-08-30T15:13:59.314Z,32.99
2022-08-30T15:16:33.937Z,33.54
2022-08-30T15:19:02.901Z,33.59
2022-08-30T15:21:33.663Z,33.53
2022-08-30T15:24:06.545Z,32.41
2022-08-30T15:26:36.157Z,33.42
2022-08-30T15:29:05.818Z,33.16
2022-08-30T15:31:35.003Z,33.26
2022-08-30T15:34:03.521Z,32.97
2022-08-30T15:36:31.789Z,33.29
2022-08-30T15:39:00.523Z,32.60
2022-08-30T15:41:29.925Z,32.76
2022-08-30T15:43:59.763Z,33.11
2022-08-30T15:46:32.223Z,33.02
2022-08-30T15:49:03.555Z,32.42
2022-08-30T15:51:41.557Z,32.46
2022-08-30T15:54:11.920Z,32.35
2022-08-30T15:56:42.027Z,32.01
2022-08-30T15:59:10.708Z,32.25
2022-08-30T16:01:40.721Z,32.43
2022-08-30T16:04:11.094Z,31.96
2022-08-30T16:06:41.763Z,32.45
2022-08-30T16:09:11.690Z,32.14
2022-08-30T16:11:40.492Z,32.08
2022-08-30T16:14:09.610Z,31.96
2022-08-30T16:16:41.770Z,30.98
2022-08-30T16:19:10.899Z,30.58
2022-08-30T16:21:41.588Z,30.46
2022-08-30T16:24:13.466Z,30.51
2022-08-30T16:26:43.837Z,30.48
2022-08-30T16:29:14.549Z,29.69
2022-08-30T16:31:45.424Z,29.87
2022-08-30T16:34:18.371Z,28.97
2022-08-30T16:36:46.802Z,29.64
2022-08-30T16:39:15.550Z,29.19
2022-08-30T16:41:45.401Z,28.85
2022-08-30T16:44:15.922Z,28.77
2022-08-30T16:46:52.955Z,28.64
2022-08-30T16:49:22.969Z,28.42
2022-08-30T16:51:52.536Z,27.91
2022-08-30T16:54:21.833Z,27.43
2022-08-30T16:56:50.480Z,27.26
2022-08-30T16:59:19.159Z,27.30
2022-08-30T17:01:49.321Z,27.36
2022-08-30T17:04:19.532Z,27.08
2022-08-30T17:06:50.124Z,27.07
2022-08-30T17:09:19.916Z,26.13
2022-08-30T17:11:49.384Z,26.68
2022-08-30T17:14:22.889Z,26.37
2022-08-30T17:17:00.555Z,26.10
2022-08-30T17:19:29.653Z,26.17
2022-08-30T17:21:58.426Z,26.12
2022-08-30T17:24:27.340Z,25.63
2022-08-30T17:26:55.652Z,25.48
2022-08-30T17:29:23.936Z,25.37
2022-08-30T17:31:52.362Z,25.02
2022-08-30T17:34:22.862Z,25.06
2022-08-30T17:36:54.803Z,25.01
2022-08-30T17:39:23.376Z,24.87
2022-08-30T17:41:52.771Z,25.03
2022-08-30T17:47:13.190Z,24.60
2022-08-30T17:49:42.889Z,24.46
2022-08-30T17:52:11.548Z,24.45
2022-08-30T17:54:41.403Z,24.06
2022-08-30T17:57:11.519Z,24.27
2022-08-30T17:59:40.971Z,23.86
2022-08-30T18:02:11.081Z,23.99
2022-08-30T18:04:41.808Z,23.88
2022-08-30T18:07:29.816Z,23.87
2022-08-30T18:09:59.308Z,23.77
2022-08-30T18:12:28.125Z,23.75
2022-08-30T18:14:56.287Z,23.69
2022-08-30T18:17:24.681Z,23.42
2022-08-30T18:19:53.578Z,23.15
2022-08-30T18:22:21.733Z,23.36
2022-08-30T18:24:51.349Z,23.14
2022-08-30T18:27:19.615Z,23.09
2022-08-30T18:29:47.805Z,23.04
2022-08-30T18:32:15.982Z,23.18
2022-08-30T18:34:44.125Z,22.80
2022-08-30T18:37:13.021Z,22.85
2022-08-30T18:39:42.473Z,22.99
2022-08-30T18:42:12.009Z,22.77
2022-08-30T18:44:43.448Z,22.93
2022-08-30T18:47:12.574Z,22.43
2022-08-30T18:49:40.813Z,22.57
2022-08-30T18:52:11.408Z,22.51
2022-08-30T18:54:41.723Z,22.46
2022-08-30T18:57:11.881Z,22.46
2022-08-30T18:59:41.794Z,22.64
2022-08-30T19:02:14.313Z,22.48
2022-08-30T19:04:45.411Z,22.36
2022-08-30T19:07:16.925Z,22.39
2022-08-30T19:09:46.725Z,22.05
2022-08-30T19:12:16.964Z,21.98
2022-08-30T19:14:46.129Z,21.81
2022-08-30T19:17:14.857Z,21.85
2022-08-30T19:19:48.530Z,22.10
2022-08-30T19:22:20.155Z,21.68
2022-08-30T19:24:49.811Z,21.90
2022-08-30T19:30:21.624Z,21.73
2022-08-30T19:32:53.500Z,21.98
2022-08-30T19:35:22.439Z,21.95
2022-08-30T19:37:50.911Z,21.99
2022-08-30T19:40:20.803Z,21.80
2022-08-30T19:42:51.476Z,21.91
2022-08-30T19:45:23.047Z,21.63
2022-08-30T19:47:53.221Z,21.77
2022-08-30T19:50:23.146Z,21.61
2022-08-30T19:52:54.714Z,21.69
2022-08-30T19:55:30.260Z,21.59
2022-08-30T19:58:03.957Z,21.55
2022-08-30T20:00:32.669Z,21.46
2022-08-30T20:03:05.990Z,21.35
2022-08-30T20:05:35.143Z,21.55
2022-08-30T20:08:04.086Z,21.44
2022-08-30T20:10:32.408Z,21.37
2022-08-30T20:13:02.472Z,21.18
2022-08-30T20:15:33.470Z,21.20
2022-08-30T20:18:05.428Z,21.35
2022-08-30T20:23:25.587Z,21.25
2022-08-30T20:24:26.038Z,24.83
2022-08-30T20:25:55.505Z,21.12
2022-08-30T20:28:26.180Z,21.17
2022-08-30T20:30:56.466Z,21.25
2022-08-30T20:33:27.441Z,21.05
2022-08-30T20:35:55.927Z,21.12
2022-08-30T20:38:24.204Z,21.15
2022-08-30T20:40:56.529Z,20.99
2022-08-30T20:43:29.707Z,21.03
2022-08-30T20:45:59.943Z,21.01
2022-08-30T20:48:28.905Z,20.85
2022-08-30T20:50:57.079Z,20.92
2022-08-30T20:53:28.340Z,20.78
2022-08-30T20:55:56.511Z,20.89
2022-08-30T20:58:26.106Z,20.77
2022-08-30T21:00:56.452Z,20.73
2022-08-30T21:03:27.628Z,20.81
2022-08-30T21:05:57.089Z,20.78
2022-08-30T21:08:25.437Z,20.65
2022-08-30T21:10:54.950Z,20.76
2022-08-30T21:13:23.336Z,20.70
2022-08-30T21:15:55.410Z,20.52
2022-08-30T21:18:32.646Z,20.64
2022-08-30T21:21:07.927Z,20.59
2022-08-30T21:23:37.040Z,20.44
2022-08-30T21:26:07.033Z,20.46
2022-08-30T21:28:35.553Z,20.64
2022-08-30T21:31:11.535Z,20.59
2022-08-30T21:33:41.187Z,20.33
2022-08-30T21:36:29.277Z,20.43
2022-08-30T21:39:00.525Z,20.41
2022-08-30T21:41:31.613Z,20.50
2022-08-30T21:44:02.255Z,20.26
2022-08-30T21:46:33.350Z,20.21
2022-08-30T21:49:03.634Z,20.33
2022-08-30T21:51:35.638Z,20.20
2022-08-30T21:54:07.123Z,20.34
2022-08-30T21:56:35.615Z,20.37
2022-08-30T21:59:05.119Z,20.32
2022-08-30T22:01:37.615Z,20.15
2022-08-30T22:04:09.954Z,20.23
2022-08-30T22:06:40.503Z,20.23
2022-08-30T22:09:13.717Z,19.94
2022-08-30T22:11:44.365Z,20.08
2022-08-30T22:14:14.333Z,19.97
2022-08-30T22:16:44.615Z,19.91
2022-08-30T22:19:13.378Z,20.03
2022-08-30T22:21:44.642Z,19.74
2022-08-30T22:24:13.270Z,19.98
2022-08-30T22:26:41.747Z,20.03
2022-08-30T22:29:10.604Z,20.05
2022-08-30T22:31:41.644Z,19.93
2022-08-30T22:34:11.812Z,20.08
2022-08-30T22:36:40.114Z,20.06
2022-08-30T22:39:10.063Z,20.05
2022-08-30T22:41:39.458Z,19.91
2022-08-30T22:44:07.799Z,19.80
2022-08-30T22:46:37.858Z,19.98
2022-08-30T22:49:08.377Z,20.06
2022-08-30T22:51:40.724Z,19.69
2022-08-30T22:54:11.164Z,19.79
2022-08-30T22:56:40.438Z,19.84
2022-08-30T22:59:08.928Z,19.79
2022-08-30T23:01:39.814Z,19.82
2022-08-30T23:04:09.953Z,19.63
2022-08-30T23:06:40.050Z,19.64
2022-08-30T23:09:09.720Z,19.63
2022-08-30T23:11:39.770Z,19.62
2022-08-30T23:14:08.525Z,19.69
2022-08-30T23:16:36.773Z,19.58
2022-08-30T23:19:06.291Z,19.41
2022-08-30T23:21:34.736Z,19.39
2022-08-30T23:24:22.831Z,19.59
2022-08-30T23:27:08.832Z,19.37
2022-08-30T23:29:55.110Z,19.43
2022-08-30T23:32:41.591Z,19.51
2022-08-30T23:35:31.686Z,19.35
2022-08-30T23:38:18.183Z,19.48
2022-08-30T23:41:05.224Z,19.20
2022-08-30T23:43:50.950Z,19.23
2022-08-30T23:46:37.074Z,19.20
2022-08-30T23:49:22.951Z,19.18
2022-08-30T23:52:08.890Z,19.05
2022-08-30T23:54:57.081Z,19.17
2022-08-30T23:57:45.210Z,19.13
